Terminal Aerodrome Forecast
Issued by NWS

Home | Current Version | Previous Version | Text Only | Print | Product List | Glossary On
Versions: 1 2 3 4 5 6 7 8 9 10 11 12 13 14 15 16 17 18 19
000
FTUS41 KGYX 252333
TAFHIE
TAF
KHIE 252333Z 2600/2624 VRB05KT P6SM -SHRA SCT025 OVC060
      TEMPO 2600/2604 BKN025
     FM260400 15008KT P6SM -SHRA OVC025
     FM261200 VRB03KT 5SM -SHRA BR OVC015=

USA.gov is the U.S. government's official web portal to all federal, state and local government web resources and services.